Time;durP1;ratioP1;P1;durP2;ratioP2;P2;SDS_P1;SDS_P2;PMS_P1;PMS_P2;Temp;Humidity;BMP_temperature;BMP_pressure;BME280_temperature;BME280_humidity;BME280_pressure;Samples;Min_cycle;Max_cycle;Signal;HPM_P1;HPM_P2
2022/11/03 00:00:59;;;;;;;;;;;;;;;16.05;57.69;100643.44;4384618;32;19987;-85
2022/11/03 00:03:27;;;;;;;;;;;;;;;16.16;57.37;100636.53;4377881;32;20390;-84
2022/11/03 00:06:03;;;;;;;;;;;;;;;16.12;57.45;100640.00;4378225;32;20039;-84
2022/11/03 00:08:31;;;;;;;;;;;;;;;16.18;57.16;100629.59;4380298;32;20649;-85
2022/11/03 00:11:17;;;;;;;;;;;;;;;16.02;57.49;100632.97;4376029;32;19983;-84
2022/11/03 00:13:44;;;;;;;;;;;;;;;15.86;57.77;100628.47;4379144;32;19974;-83
2022/11/03 00:16:11;;;;;;;;;;;;;;;15.89;57.51;100625.91;4371176;32;20692;-84
2022/11/03 00:18:38;;;;;;;;;;;;;;;15.90;57.29;100630.28;4370530;32;20899;-85
2022/11/03 00:21:06;;;;;;;;;;;;;;;15.84;57.62;100635.47;4376130;32;20308;-84
2022/11/03 00:23:33;;;;;;;;;;;;;;;15.86;57.73;100628.47;4380426;32;20009;-83
2022/11/03 00:26:09;;;;;;;;;;;;;;;15.69;58.41;100626.63;4385022;32;19979;-85
2022/11/03 00:28:36;;;;;;;;;;;;;;;15.80;58.16;100630.22;4381609;32;19986;-83
2022/11/03 00:31:08;;;;;;;;;;;;;;;15.83;58.55;100631.09;4375784;32;20336;-84
2022/11/03 00:33:35;;;;;;;;;;;;;;;15.91;58.17;100629.41;4373277;32;20674;-84
2022/11/03 00:36:02;;;;;;;;;;;;;;;15.85;58.27;100634.59;4379470;32;19983;-83
2022/11/03 00:38:29;;;;;;;;;;;;;;;15.94;57.73;100619.84;4370787;32;19978;-83
2022/11/03 00:40:56;;;;;;;;;;;;;;;15.88;57.71;100618.94;4395990;32;20039;-85
2022/11/03 00:43:23;;;;;;;;;;;;;;;15.90;57.58;100628.53;4388557;32;19983;-85
2022/11/03 00:45:50;;;;;;;;;;;;;;;15.88;57.59;100627.63;4386028;32;20331;-85
2022/11/03 00:48:29;;;;;;;;;;;;;;;15.88;57.50;100626.78;4386110;32;19989;-85
2022/11/03 00:51:22;;;;;;;;;;;;;;;15.83;57.82;100621.53;4394024;32;20021;-83
2022/11/03 00:53:53;;;;;;;;;;;;;;;15.87;57.69;100622.44;4390978;32;20000;-83
2022/11/03 00:56:24;;;;;;;;;;;;;;;15.92;57.48;100623.31;4399789;32;19986;-84
2022/11/03 00:58:51;;;;;;;;;;;;;;;15.87;57.38;100628.50;4401275;32;20462;-84
2022/11/03 01:01:19;;;;;;;;;;;;;;;15.94;57.26;100629.44;4395008;32;20001;-84
2022/11/03 01:06:51;;;;;;;;;;;;;;;15.99;56.85;100622.50;4386722;32;19989;-84
2022/11/03 01:09:19;;;;;;;;;;;;;;;15.91;57.07;100616.34;4389735;32;19982;-83
2022/11/03 01:11:50;;;;;;;;;;;;;;;15.79;57.25;100620.63;4394627;32;20429;-84
2022/11/03 01:14:17;;;;;;;;;;;;;;;15.76;57.35;100619.72;4391368;32;19986;-84
2022/11/03 01:16:44;;;;;;;;;;;;;;;15.79;56.95;100610.19;4388867;32;19990;-83
2022/11/03 01:19:11;;;;;;;;;;;;;;;15.73;56.73;100610.16;4390018;32;19990;-85
2022/11/03 01:21:38;;;;;;;;;;;;;;;15.66;56.74;100603.06;4386369;32;19986;-86
2022/11/03 01:24:05;;;;;;;;;;;;;;;15.56;56.78;100601.28;4394484;32;19987;-85
2022/11/03 01:26:31;;;;;;;;;;;;;;;15.59;56.49;100603.91;4385966;32;19982;-85
2022/11/03 01:28:58;;;;;;;;;;;;;;;15.56;56.52;100603.88;4397323;32;20009;-85
2022/11/03 01:31:25;;;;;;;;;;;;;;;15.55;56.67;100594.31;4387733;32;20556;-85
2022/11/03 01:33:53;;;;;;;;;;;;;;;15.61;56.33;100596.97;4392642;32;19989;-85
2022/11/03 01:36:20;;;;;;;;;;;;;;;15.64;56.25;100599.59;4388083;32;20765;-85
2022/11/03 01:38:47;;;;;;;;;;;;;;;15.66;56.11;100597.84;4392483;32;19975;-84
2022/11/03 01:41:15;;;;;;;;;;;;;;;15.64;56.21;100597.00;4392307;32;19986;-84
2022/11/03 01:43:42;;;;;;;;;;;;;;;15.73;55.79;100593.59;4387708;32;19974;-85
2022/11/03 01:46:09;;;;;;;;;;;;;;;15.66;55.89;100592.63;4392356;32;20037;-84
2022/11/03 01:48:37;;;;;;;;;;;;;;;15.63;56.06;100596.97;4386518;32;19982;-85
2022/11/03 01:51:04;;;;;;;;;;;;;;;15.64;55.89;100599.59;4384197;32;19994;-84
2022/11/03 01:53:31;;;;;;;;;;;;;;;15.70;55.46;100599.69;4400545;32;20010;-83
2022/11/03 01:55:57;;;;;;;;;;;;;;;15.62;55.62;100601.31;4392096;32;19982;-85
2022/11/03 01:58:26;;;;;;;;;;;;;;;15.48;56.12;100593.37;4385879;32;19979;-85
2022/11/03 02:00:53;;;;;;;;;;;;;;;15.43;56.29;100589.00;4388531;32;19978;-84
2022/11/03 02:03:21;;;;;;;;;;;;;;;15.48;56.10;100587.31;4392758;32;20342;-85
2022/11/03 02:05:48;;;;;;;;;;;;;;;15.52;55.94;100583.84;4392962;32;20002;-86
2022/11/03 02:08:16;;;;;;;;;;;;;;;15.53;55.73;100596.03;4404286;32;20033;-83
2022/11/03 02:10:47;;;;;;;;;;;;;;;15.45;55.57;100582.06;4386512;32;19990;-85
2022/11/03 02:13:17;;;;;;;;;;;;;;;15.44;55.52;100590.72;4389746;32;19987;-85
2022/11/03 02:15:43;;;;;;;;;;;;;;;15.48;55.09;100587.31;4385775;32;20371;-85
2022/11/03 02:18:11;;;;;;;;;;;;;;;15.41;55.05;100593.31;4390127;32;20279;-85
2022/11/03 02:20:40;;;;;;;;;;;;;;;15.34;54.84;100595.84;4383675;32;20001;-86
2022/11/03 02:23:16;;;;;;;;;;;;;;;14.99;55.57;100589.44;4393289;32;19966;-85
2022/11/03 02:25:46;;;;;;;;;;;;;;;14.86;56.15;100591.91;4385279;32;19986;-84
2022/11/03 02:28:20;;;;;;;;;;;;;;;14.82;56.12;100595.34;4002681;32;10011571;-85
2022/11/03 02:30:50;;;;;;;;;;;;;;;14.97;55.86;100610.31;4234297;32;5011397;-85
2022/11/03 02:33:23;;;;;;;;;;;;;;;14.93;55.78;100602.41;4385683;32;19997;-84
2022/11/03 02:35:52;;;;;;;;;;;;;;;14.67;56.43;100600.41;4392032;32;19987;-85
2022/11/03 02:38:19;;;;;;;;;;;;;;;14.58;56.72;100600.28;4390362;32;20001;-84
2022/11/03 02:40:47;;;;;;;;;;;;;;;14.60;56.68;100609.87;4398696;32;19993;-85
2022/11/03 02:43:14;;;;;;;;;;;;;;;14.27;56.87;100610.28;4384280;32;20024;-84
2022/11/03 02:45:41;;;;;;;;;;;;;;;14.41;56.56;100603.53;4391940;32;20001;-85
2022/11/03 02:48:07;;;;;;;;;;;;;;;14.47;56.29;100600.13;4384097;32;20880;-85
2022/11/03 02:50:34;;;;;;;;;;;;;;;14.37;56.47;100601.75;4383972;32;20682;-83
2022/11/03 02:53:01;;;;;;;;;;;;;;;14.46;56.24;100602.72;4387231;32;19986;-83
2022/11/03 02:55:44;;;;;;;;;;;;;;;14.17;56.61;100603.22;4391512;32;19978;-85
2022/11/03 02:58:31;;;;;;;;;;;;;;;14.23;56.23;100592.00;4392586;32;19992;-84
2022/11/03 03:01:00;;;;;;;;;;;;;;;14.04;56.45;100588.25;4386657;32;20362;-85
2022/11/03 03:03:37;;;;;;;;;;;;;;;14.10;56.47;100588.34;4387215;32;19989;-83
2022/11/03 03:06:06;;;;;;;;;;;;;;;13.81;57.53;100591.41;4393670;32;20315;-85
2022/11/03 03:08:33;;;;;;;;;;;;;;;13.84;56.64;100586.25;4389792;32;20008;-86
2022/11/03 03:11:00;;;;;;;;;;;;;;;13.72;56.89;100588.69;4393457;32;20276;-85
2022/11/03 03:13:27;;;;;;;;;;;;;;;13.78;57.09;100582.69;4391496;32;20001;-85
2022/11/03 03:16:20;;;;;;;;;;;;;;;13.73;57.36;100590.44;4385187;32;19982;-85
2022/11/03 03:18:47;;;;;;;;;;;;;;;13.88;56.59;100585.47;4394342;32;19974;-85
2022/11/03 03:21:20;;;;;;;;;;;;;;;13.75;56.97;100588.72;4385154;32;20001;-84
2022/11/03 03:23:52;;;;;;;;;;;;;;;13.68;57.55;100597.28;4385141;32;19978;-84
2022/11/03 03:26:20;;;;;;;;;;;;;;;13.46;57.54;100589.16;4383381;32;20018;-83
2022/11/03 03:28:48;;;;;;;;;;;;;;;13.46;57.30;100586.56;4408784;32;19978;-86
2022/11/03 03:31:15;;;;;;;;;;;;;;;13.38;57.39;100582.94;4385845;32;20005;-85
2022/11/03 03:33:42;;;;;;;;;;;;;;;13.49;57.16;100581.38;4392916;32;19978;-84
2022/11/03 03:36:14;;;;;;;;;;;;;;;13.71;56.31;100581.72;4392475;32;20315;-83
2022/11/03 03:38:42;;;;;;;;;;;;;;;13.31;56.99;100570.69;4385424;32;20001;-86
2022/11/03 03:41:10;;;;;;;;;;;;;;;13.41;56.78;100588.19;4393638;32;19982;-83
2022/11/03 03:43:37;;;;;;;;;;;;;;;13.29;57.54;100593.19;4401779;32;20275;-85
2022/11/03 03:46:05;;;;;;;;;;;;;;;13.32;57.45;100593.25;4394653;32;19982;-86
2022/11/03 03:48:32;;;;;;;;;;;;;;;13.38;57.02;100588.12;4385296;32;20017;-83
2022/11/03 03:50:59;;;;;;;;;;;;;;;13.38;57.16;100588.12;3778773;32;10011127;-83
2022/11/03 03:53:26;;;;;;;;;;;;;;;13.41;56.77;100577.78;4388028;32;20001;-84
2022/11/03 03:55:53;;;;;;;;;;;;;;;13.33;56.84;100588.91;4393477;32;19967;-83
2022/11/03 03:58:20;;;;;;;;;;;;;;;13.40;56.50;100596.84;4385075;32;20001;-85
2022/11/03 04:00:46;;;;;;;;;;;;;;;13.42;56.55;100589.94;4394906;32;20354;-86
2022/11/03 04:03:15;;;;;;;;;;;;;;;13.28;56.83;100596.66;4386674;32;20001;-83
2022/11/03 04:05:43;;;;;;;;;;;;;;;13.25;56.30;100592.25;4385287;32;19985;-83
2022/11/03 04:08:11;;;;;;;;;;;;;;;13.35;55.79;100610.63;4387554;32;19975;-83
2022/11/03 04:10:38;;;;;;;;;;;;;;;13.28;56.34;100607.03;4391594;32;20001;-85
2022/11/03 04:23:48;;;;;;;;;;;;;;;13.06;57.53;100604.88;4378990;32;19978;-84
2022/11/03 04:26:16;;;;;;;;;;;;;;;12.97;57.18;100601.25;4377125;32;20798;-85
2022/11/03 04:28:43;;;;;;;;;;;;;;;12.96;57.27;100593.44;4371801;32;19992;-83
2022/11/03 04:31:13;;;;;;;;;;;;;;;12.95;57.06;100592.53;4369948;32;20006;-83
2022/11/03 04:33:40;;;;;;;;;;;;;;;12.90;57.06;100583.81;4371565;32;19979;-84
2022/11/03 04:36:09;;;;;;;;;;;;;;;12.81;56.90;100591.41;4371223;32;19983;-83
2022/11/03 04:38:36;;;;;;;;;;;;;;;13.00;56.37;100588.31;4369657;32;19982;-83
2022/11/03 04:41:11;;;;;;;;;;;;;;;12.72;57.04;100594.72;4388178;32;20402;-83
2022/11/03 04:43:38;;;;;;;;;;;;;;;12.67;57.12;100596.34;4385049;32;19987;-86
2022/11/03 04:46:08;;;;;;;;;;;;;;;12.69;57.17;100599.84;4379393;32;19986;-83
2022/11/03 04:48:35;;;;;;;;;;;;;;;12.76;56.93;100596.53;4407623;32;19983;-84
2022/11/03 04:51:09;;;;;;;;;;;;;;;12.84;56.33;100598.41;4391044;32;20315;-85
2022/11/03 04:53:36;;;;;;;;;;;;;;;12.56;57.02;100603.03;4387933;32;20001;-84
2022/11/03 04:56:07;;;;;;;;;;;;;;;12.75;56.08;100593.91;4391520;32;19977;-86
2022/11/03 04:58:35;;;;;;;;;;;;;;;12.54;57.13;100590.03;4385691;32;19978;-84
2022/11/03 05:01:02;;;;;;;;;;;;;;;12.52;57.10;100596.91;4384996;32;20379;-83
2022/11/03 05:03:33;;;;;;;;;;;;;;;12.59;57.15;100612.63;4388914;32;20361;-85
2022/11/03 05:06:01;;;;;;;;;;;;;;;12.52;57.16;100599.50;4389610;32;19978;-85
2022/11/03 05:08:27;;;;;;;;;;;;;;;12.69;56.92;100599.84;4390019;32;19978;-84
2022/11/03 05:10:54;;;;;;;;;;;;;;;12.43;57.14;100601.91;4392348;32;19998;-84
2022/11/03 05:13:25;;;;;;;;;;;;;;;12.48;57.00;100608.09;4392121;32;19997;-85
2022/11/03 05:15:52;;;;;;;;;;;;;;;12.45;57.44;100605.44;4384748;32;19993;-85
2022/11/03 05:18:19;;;;;;;;;;;;;;;12.49;57.37;100606.37;4386432;32;19982;-84
2022/11/03 05:20:53;;;;;;;;;;;;;;;12.68;57.20;100610.22;4386195;32;19997;-83
2022/11/03 05:23:20;;;;;;;;;;;;;;;12.66;57.52;100604.09;4402759;32;20009;-84
2022/11/03 05:25:49;;;;;;;;;;;;;;;12.43;57.92;100601.91;4388203;32;20790;-81
2022/11/03 05:28:19;;;;;;;;;;;;;;;12.46;58.12;100599.37;4391229;32;20054;-86
2022/11/03 05:30:47;;;;;;;;;;;;;;;12.60;57.83;100598.78;4386085;32;19986;-81
2022/11/03 05:33:33;;;;;;;;;;;;;;;12.59;58.05;100605.72;4387840;32;19983;-84
2022/11/03 05:36:02;;;;;;;;;;;;;;;12.48;58.80;100596.84;4392483;32;20321;-84
2022/11/03 05:38:29;;;;;;;;;;;;;;;12.55;58.72;100607.38;4387608;32;20021;-87
2022/11/03 05:40:56;;;;;;;;;;;;;;;12.49;59.04;100604.62;4389539;32;20001;-84
2022/11/03 05:43:23;;;;;;;;;;;;;;;12.59;58.84;100602.25;4384698;32;20331;-80
2022/11/03 05:45:51;;;;;;;;;;;;;;;12.61;58.91;100610.94;4387116;32;19989;-80
2022/11/03 05:48:38;;;;;;;;;;;;;;;12.69;59.02;100610.22;4390075;32;20030;-80
2022/11/03 05:51:24;;;;;;;;;;;;;;;12.71;59.29;100605.09;4384782;32;20351;-80
2022/11/03 05:53:53;;;;;;;;;;;;;;;12.85;58.77;100606.22;4384064;32;20028;-80
2022/11/03 05:56:20;;;;;;;;;;;;;;;12.80;58.92;100605.25;4384085;32;19974;-81
2022/11/03 05:58:48;;;;;;;;;;;;;;;12.67;59.20;100606.75;4392543;32;20028;-80
2022/11/03 06:01:17;;;;;;;;;;;;;;;12.94;58.55;100616.78;4384866;32;20005;-79
2022/11/03 06:03:45;;;;;;;;;;;;;;;12.93;58.58;100625.44;4399315;32;19991;-84
2022/11/03 06:06:17;;;;;;;;;;;;;;;13.13;57.65;100633.59;4399375;32;20012;-80
2022/11/03 06:08:44;;;;;;;;;;;;;;;12.78;59.22;100640.72;4400691;32;19997;-78
2022/11/03 06:11:15;;;;;;;;;;;;;;;12.82;59.29;100636.47;4391080;32;20338;-77
2022/11/03 06:13:42;;;;;;;;;;;;;;;12.99;58.47;100641.16;4396130;32;19997;-78
2022/11/03 06:16:18;;;;;;;;;;;;;;;12.91;59.16;100640.13;4357533;32;913227;-80
2022/11/03 06:18:45;;;;;;;;;;;;;;;12.96;58.99;100643.69;4388951;32;19982;-80
2022/11/03 06:21:13;;;;;;;;;;;;;;;13.07;58.78;100645.59;4404898;32;20009;-78
2022/11/03 06:23:39;;;;;;;;;;;;;;;13.12;59.04;100647.44;4406466;32;20080;-79
2022/11/03 06:26:17;;;;;;;;;;;;;;;12.82;60.07;100660.72;4407514;32;20036;-86
2022/11/03 06:28:44;;;;;;;;;;;;;;;13.07;59.45;100663.81;4402864;32;20013;-79
2022/11/03 06:31:18;;;;;;;;;;;;;;;12.39;61.94;100662.44;4404389;32;20057;-78
2022/11/03 06:33:49;;;;;;;;;;;;;;;12.83;60.96;100672.88;4410076;32;19998;-79
2022/11/03 06:36:23;;;;;;;;;;;;;;;13.23;59.91;100666.72;4399300;32;19983;-78
2022/11/03 06:38:51;;;;;;;;;;;;;;;13.25;60.07;100665.06;4400901;32;20040;-78
2022/11/03 06:41:31;;;;;;;;;;;;;;;13.39;59.47;100662.69;4402480;32;19983;-79
2022/11/03 06:44:00;;;;;;;;;;;;;;;13.58;59.45;100668.22;4398761;32;20033;-78
2022/11/03 06:46:27;;;;;;;;;;;;;;;13.37;60.37;100673.91;4385235;32;19989;-79
2022/11/03 06:48:57;;;;;;;;;;;;;;;13.62;59.91;100664.81;4396831;32;19970;-78
2022/11/03 06:51:25;;;;;;;;;;;;;;;13.73;59.96;100668.50;4384909;32;19983;-78
2022/11/03 06:53:52;;;;;;;;;;;;;;;13.91;59.77;100668.78;4366548;32;20002;-80
2022/11/03 06:56:20;;;;;;;;;;;;;;;13.92;60.04;100665.34;4370314;32;20446;-78
2022/11/03 06:58:49;;;;;;;;;;;;;;;14.22;59.49;100671.84;4368797;32;20313;-78
2022/11/03 07:01:22;;;;;;;;;;;;;;;14.17;60.15;100670.91;4370829;32;20001;-78
2022/11/03 07:03:56;;;;;;;;;;;;;;;14.43;58.97;100672.16;4376618;32;20037;-78
2022/11/03 07:06:24;;;;;;;;;;;;;;;14.55;58.78;100667.97;4368505;32;20006;-85
2022/11/03 07:08:52;;;;;;;;;;;;;;;14.76;58.11;100673.47;4380538;32;20702;-80
2022/11/03 07:11:20;;;;;;;;;;;;;;;14.85;58.09;100663.16;4379903;32;20004;-78
2022/11/03 07:13:47;;;;;;;;;;;;;;;14.96;57.68;100670.22;4374253;32;19978;-79
2022/11/03 07:16:34;;;;;;;;;;;;;;;15.15;57.63;100672.19;4373958;32;19975;-78
2022/11/03 07:19:05;;;;;;;;;;;;;;;15.30;56.82;100671.47;4370184;32;19978;-78
2022/11/03 07:21:37;;;;;;;;;;;;;;;15.37;56.79;100673.28;4368805;32;19983;-78
2022/11/03 07:24:06;;;;;;;;;;;;;;;15.37;56.76;100673.28;4369380;32;20001;-79
2022/11/03 07:26:33;;;;;;;;;;;;;;;15.37;56.79;100672.41;4368047;32;20001;-78
2022/11/03 07:29:00;;;;;;;;;;;;;;;15.45;57.83;100681.22;4377345;32;19983;-78
2022/11/03 07:31:27;;;;;;;;;;;;;;;15.24;58.64;100687.94;4372483;32;19990;-78
2022/11/03 07:33:54;;;;;;;;;;;;;;;15.20;58.79;100680.94;4380998;32;20289;-81
2022/11/03 07:36:21;;;;;;;;;;;;;;;15.45;57.47;100673.38;4368946;32;19988;-78
2022/11/03 07:38:49;;;;;;;;;;;;;;;15.51;57.50;100676.03;4374777;32;19978;-80
2022/11/03 07:41:17;;;;;;;;;;;;;;;15.60;57.55;100676.09;4368073;32;19983;-80
2022/11/03 07:43:49;;;;;;;;;;;;;;;15.35;58.17;100681.09;4367410;32;20041;-78
2022/11/03 07:46:17;;;;;;;;;;;;;;;15.65;57.23;100674.41;4371728;32;19990;-83
2022/11/03 07:48:43;;;;;;;;;;;;;;;15.83;57.28;100678.09;4375436;32;19978;-78
2022/11/03 07:51:33;;;;;;;;;;;;;;;15.89;57.17;100667.69;4370845;32;19983;-78
2022/11/03 07:54:15;;;;;;;;;;;;;;;15.96;56.98;100664.28;4373479;32;19983;-78
2022/11/03 07:56:45;;;;;;;;;;;;;;;15.99;57.30;100672.13;4378617;32;20001;-78
2022/11/03 07:59:14;;;;;;;;;;;;;;;16.12;56.82;100670.47;4369939;32;20421;-78
2022/11/03 08:01:42;;;;;;;;;;;;;;;15.91;57.56;100658.13;4377007;32;19990;-79
2022/11/03 08:04:09;;;;;;;;;;;;;;;16.03;57.61;100650.37;4385656;32;19995;-84
2022/11/03 08:06:36;;;;;;;;;;;;;;;16.05;57.97;100648.66;4375148;32;20026;-79
2022/11/03 08:09:03;;;;;;;;;;;;;;;15.78;59.24;100655.41;4379885;32;20003;-78
2022/11/03 08:11:30;;;;;;;;;;;;;;;15.97;58.88;100655.56;4379017;32;20005;-77
2022/11/03 08:13:57;;;;;;;;;;;;;;;16.07;58.76;100652.16;4372590;32;19993;-81
2022/11/03 08:16:23;;;;;;;;;;;;;;;16.00;59.36;100652.97;4371075;32;20025;-79
2022/11/03 08:18:50;;;;;;;;;;;;;;;16.02;59.05;100653.87;4369919;32;19979;-77
2022/11/03 08:21:17;;;;;;;;;;;;;;;16.05;58.95;100653.91;4371373;32;19990;-77
2022/11/03 08:23:44;;;;;;;;;;;;;;;15.95;59.73;100657.28;4367278;32;20445;-77
2022/11/03 08:26:13;;;;;;;;;;;;;;;16.01;59.64;100657.31;4375061;32;19986;-77
2022/11/03 08:28:40;;;;;;;;;;;;;;;15.95;60.20;100652.06;4383778;32;20263;-77
2022/11/03 08:31:07;;;;;;;;;;;;;;;16.07;59.18;100646.91;4386164;32;20024;-77
2022/11/03 08:33:39;;;;;;;;;;;;;;;16.04;59.49;100646.91;4376660;32;19986;-77
2022/11/03 08:36:07;;;;;;;;;;;;;;;16.28;59.07;100652.28;4385860;32;19998;-77
2022/11/03 08:38:34;;;;;;;;;;;;;;;16.44;58.42;100647.16;4384544;32;20038;-78
2022/11/03 08:41:01;;;;;;;;;;;;;;;16.42;58.63;100648.88;4376516;32;20013;-79
2022/11/03 08:43:27;;;;;;;;;;;;;;;16.32;58.90;100647.09;4367786;32;19979;-78
2022/11/03 08:45:54;;;;;;;;;;;;;;;16.35;59.05;100636.66;4402982;32;20012;-78
2022/11/03 08:48:22;;;;;;;;;;;;;;;16.35;59.03;100632.28;4400770;32;20370;-78
2022/11/03 08:50:53;;;;;;;;;;;;;;;16.37;58.94;100640.13;4400866;32;19978;-78
2022/11/03 08:53:20;;;;;;;;;;;;;;;16.09;59.92;100637.37;4400813;32;20001;-78
2022/11/03 08:55:47;;;;;;;;;;;;;;;16.20;59.83;100638.28;4394237;32;19982;-78
2022/11/03 08:58:14;;;;;;;;;;;;;;;16.25;59.52;100633.13;4395702;32;19981;-83
2022/11/03 09:00:40;;;;;;;;;;;;;;;16.42;59.10;100634.06;4398352;32;19996;-78
2022/11/03 09:03:07;;;;;;;;;;;;;;;16.37;59.09;100634.91;4385047;32;19979;-77
2022/11/03 09:05:35;;;;;;;;;;;;;;;16.24;59.36;100633.97;4385921;32;20013;-78
2022/11/03 09:08:01;;;;;;;;;;;;;;;16.22;59.42;100631.34;4392958;32;19997;-78
2022/11/03 09:10:51;;;;;;;;;;;;;;;16.13;59.73;100628.69;4388167;32;20351;-78
2022/11/03 09:13:18;;;;;;;;;;;;;;;16.14;60.05;100625.19;4391726;32;20001;-78
2022/11/03 09:15:46;;;;;;;;;;;;;;;16.26;59.96;100627.88;4409655;32;20401;-78
2022/11/03 09:18:13;;;;;;;;;;;;;;;16.33;59.77;100618.34;4389257;32;20038;-78
2022/11/03 09:20:45;;;;;;;;;;;;;;;16.27;60.15;100619.19;4385682;32;20016;-78
2022/11/03 09:23:12;;;;;;;;;;;;;;;16.37;59.38;100624.44;4392187;32;19977;-77
2022/11/03 09:25:39;;;;;;;;;;;;;;;16.34;59.19;100624.47;4249053;32;5004071;-78
2022/11/03 09:28:09;;;;;;;;;;;;;;;16.42;59.43;100620.13;4410660;32;19983;-78
2022/11/03 09:30:39;;;;;;;;;;;;;;;16.39;59.45;100618.38;4385695;32;19994;-79
2022/11/03 09:33:06;;;;;;;;;;;;;;;15.99;60.77;100614.69;4385542;32;19982;-81
2022/11/03 09:35:32;;;;;;;;;;;;;;;16.16;60.45;100613.03;4385677;32;19993;-78
2022/11/03 09:37:59;;;;;;;;;;;;;;;16.39;60.08;100612.28;4394062;32;20021;-79
2022/11/03 09:40:29;;;;;;;;;;;;;;;16.44;60.08;100615.78;4389596;32;20408;-79
2022/11/03 09:42:56;;;;;;;;;;;;;;;16.56;59.53;100604.50;4388932;32;20001;-79
2022/11/03 09:45:23;;;;;;;;;;;;;;;16.43;60.13;100608.78;4384235;32;19997;-78
2022/11/03 09:47:50;;;;;;;;;;;;;;;16.65;59.78;100610.63;4390440;32;20006;-79
2022/11/03 09:50:18;;;;;;;;;;;;;;;16.69;59.43;100601.09;4387767;32;20002;-82
2022/11/03 09:52:46;;;;;;;;;;;;;;;16.63;59.54;100599.31;4384357;32;19992;-80
2022/11/03 09:55:22;;;;;;;;;;;;;;;16.30;60.29;100591.31;4391011;32;19970;-80
2022/11/03 09:57:51;;;;;;;;;;;;;;;16.43;60.48;100587.88;4385270;32;20319;-79
2022/11/03 10:00:19;;;;;;;;;;;;;;;16.63;60.16;100586.25;4384544;32;19991;-80
2022/11/03 10:02:46;;;;;;;;;;;;;;;16.64;59.77;100581.88;4380854;32;20014;-78
2022/11/03 10:05:14;;;;;;;;;;;;;;;16.50;60.13;100584.47;4384112;32;19987;-79
2022/11/03 10:07:41;;;;;;;;;;;;;;;16.58;59.82;100574.88;4385853;32;20029;-79
2022/11/03 10:10:13;;;;;;;;;;;;;;;16.76;59.51;100570.62;4389307;32;20347;-79
2022/11/03 10:12:41;;;;;;;;;;;;;;;16.62;59.85;100568.78;4390585;32;20001;-79
2022/11/03 10:15:14;;;;;;;;;;;;;;;16.64;59.63;100556.63;4385544;32;19982;-78
2022/11/03 10:17:41;;;;;;;;;;;;;;;16.50;60.13;100560.94;4384122;32;20005;-79
2022/11/03 10:20:09;;;;;;;;;;;;;;;16.58;59.72;100556.59;4383955;32;19994;-80
2022/11/03 10:22:36;;;;;;;;;;;;;;;16.55;59.73;100546.13;4384170;32;20002;-79
2022/11/03 10:25:26;;;;;;;;;;;;;;;16.59;59.51;100547.91;4385550;32;19975;-79
2022/11/03 10:28:07;;;;;;;;;;;;;;;16.61;59.13;100538.31;4384319;32;20315;-79
2022/11/03 10:30:47;;;;;;;;;;;;;;;16.45;59.89;100539.13;4392001;32;19978;-79
2022/11/03 10:33:34;;;;;;;;;;;;;;;16.49;59.52;100540.88;4386530;32;20351;-78
2022/11/03 10:36:03;;;;;;;;;;;;;;;16.26;60.18;100539.06;4390196;32;19974;-79
2022/11/03 10:38:31;;;;;;;;;;;;;;;15.91;61.31;100535.41;4387085;32;19987;-79
2022/11/03 10:41:16;;;;;;;;;;;;;;;16.13;61.04;100532.03;4391251;32;20316;-83
2022/11/03 10:43:44;;;;;;;;;;;;;;;16.04;60.93;100521.53;4393286;32;20347;-78
2022/11/03 10:46:11;;;;;;;;;;;;;;;16.04;61.20;100518.94;4389371;32;19983;-78
2022/11/03 10:49:07;;;;;;;;;;;;;;;16.03;61.20;100511.97;4392276;32;20025;-79
2022/11/03 10:51:33;;;;;;;;;;;;;;;16.09;61.18;100504.16;4383787;32;19998;-79
2022/11/03 10:54:01;;;;;;;;;;;;;;;16.19;60.79;100507.69;4390093;32;20006;-81
2022/11/03 10:56:35;;;;;;;;;;;;;;;16.02;61.23;100502.41;4406160;32;20042;-87
2022/11/03 10:59:08;;;;;;;;;;;;;;;16.11;61.17;100502.41;4382418;32;19983;-85
2022/11/03 11:01:36;;;;;;;;;;;;;;;16.13;60.92;100505.91;4396393;32;19990;-78
2022/11/03 11:04:03;;;;;;;;;;;;;;;16.13;60.86;100495.47;4395619;32;20264;-79
2022/11/03 11:06:30;;;;;;;;;;;;;;;16.11;61.02;100496.31;4390217;32;19988;-85
2022/11/03 11:09:02;;;;;;;;;;;;;;;16.05;60.89;100494.59;4390386;32;19986;-79
2022/11/03 11:11:32;;;;;;;;;;;;;;;15.97;61.60;100485.84;4404252;32;20332;-91
2022/11/03 11:14:25;;;;;;;;;;;;;;;15.52;62.98;100479.47;4385514;32;20749;-79
2022/11/03 11:16:56;;;;;;;;;;;;;;;15.85;62.11;100483.16;4384854;32;20011;-80
2022/11/03 11:19:25;;;;;;;;;;;;;;;15.98;61.69;100474.50;4400811;32;19994;-82
2022/11/03 11:21:53;;;;;;;;;;;;;;;15.98;61.54;100474.50;4394767;32;19986;-78
2022/11/03 11:24:44;;;;;;;;;;;;;;;16.13;61.28;100471.97;4389258;32;20037;-80
2022/11/03 11:27:32;;;;;;;;;;;;;;;15.84;62.06;100471.84;4391966;32;19975;-79
2022/11/03 11:29:59;;;;;;;;;;;;;;;16.14;61.37;100462.38;4405163;32;19986;-78
2022/11/03 11:32:35;;;;;;;;;;;;;;;16.24;60.66;100453.69;4401564;32;20028;-79
2022/11/03 11:35:02;;;;;;;;;;;;;;;16.11;61.19;100455.41;4401716;32;20027;-79
2022/11/03 11:37:29;;;;;;;;;;;;;;;15.99;61.71;100455.38;4401273;32;19984;-79
2022/11/03 11:39:56;;;;;;;;;;;;;;;16.26;60.58;100450.22;4392911;32;20026;-79
2022/11/03 11:42:23;;;;;;;;;;;;;;;16.13;61.14;100443.22;4372323;32;19993;-79
2022/11/03 11:44:56;;;;;;;;;;;;;;;16.00;61.69;100442.31;4371184;32;20355;-79
2022/11/03 11:47:26;;;;;;;;;;;;;;;16.18;61.04;100436.28;4371443;32;20021;-83
2022/11/03 11:50:10;;;;;;;;;;;;;;;15.98;61.57;100437.94;4390521;32;19994;-79
2022/11/03 11:52:41;;;;;;;;;;;;;;;16.06;61.39;100425.81;4373905;32;19979;-80
2022/11/03 11:55:23;;;;;;;;;;;;;;;16.08;61.51;100428.41;4376028;32;19982;-81
2022/11/03 11:57:51;;;;;;;;;;;;;;;16.25;60.67;100431.97;4371602;32;19971;-79
2022/11/03 12:00:23;;;;;;;;;;;;;;;16.37;60.45;100412.81;4369687;32;20017;-82
2022/11/03 12:02:51;;;;;;;;;;;;;;;16.31;60.59;100407.59;4370662;32;19994;-80
2022/11/03 12:05:28;;;;;;;;;;;;;;;16.17;61.30;100411.03;4384645;32;19995;-78
2022/11/03 12:07:55;;;;;;;;;;;;;;;16.31;60.78;100407.59;4383221;32;20530;-81
2022/11/03 12:10:26;;;;;;;;;;;;;;;16.16;61.19;100401.44;4384289;32;19998;-92
2022/11/03 12:12:57;;;;;;;;;;;;;;;15.91;61.98;100404.88;4385531;32;20323;-78
2022/11/03 12:15:43;;;;;;;;;;;;;;;16.30;61.07;100398.00;4384130;32;20806;-78
2022/11/03 12:18:29;;;;;;;;;;;;;;;16.15;61.56;100389.28;4393120;32;20259;-91
2022/11/03 12:21:05;;;;;;;;;;;;;;;15.91;61.98;100394.41;4385820;32;20004;-82
2022/11/03 12:23:43;;;;;;;;;;;;;;;16.35;60.69;100386.69;4384175;32;19982;-77
2022/11/03 12:26:14;;;;;;;;;;;;;;;16.19;61.29;100382.31;4383599;32;19982;-78
2022/11/03 12:28:44;;;;;;;;;;;;;;;16.10;61.84;100383.16;4385955;32;20040;-78
2022/11/03 12:31:15;;;;;;;;;;;;;;;16.32;60.96;100375.38;4382457;32;19978;-79
2022/11/03 12:33:49;;;;;;;;;;;;;;;16.38;60.64;100375.38;4372494;32;20009;-78
2022/11/03 12:36:16;;;;;;;;;;;;;;;16.13;61.48;100367.50;4378310;32;19986;-76
2022/11/03 12:38:43;;;;;;;;;;;;;;;16.23;61.18;100371.84;4386193;32;20275;-77
2022/11/03 12:41:25;;;;;;;;;;;;;;;16.03;61.75;100365.75;4389573;32;20492;-79
2022/11/03 12:43:54;;;;;;;;;;;;;;;16.32;61.09;100362.31;4388560;32;20225;-78
2022/11/03 12:46:23;;;;;;;;;;;;;;;16.41;60.73;100364.94;4389572;32;20039;-82
2022/11/03 12:48:51;;;;;;;;;;;;;;;16.40;60.73;100348.38;4407989;32;20579;-78
2022/11/03 12:51:22;;;;;;;;;;;;;;;16.25;61.25;100354.47;4415925;32;20055;-85
2022/11/03 12:53:48;;;;;;;;;;;;;;;16.30;61.00;100350.97;4416543;32;20338;-78
2022/11/03 12:56:16;;;;;;;;;;;;;;;16.47;60.48;100346.63;4396283;32;20413;-77
2022/11/03 12:58:43;;;;;;;;;;;;;;;16.32;61.13;100354.47;4385789;32;19971;-77
2022/11/03 13:01:09;;;;;;;;;;;;;;;16.33;61.16;100350.97;4384359;32;20001;-78
2022/11/03 13:03:36;;;;;;;;;;;;;;;16.35;61.16;100349.25;4393613;32;19974;-77